createdAt,value
2023-04-30T00:00:46.807Z,14.20
2023-04-30T00:03:36.529Z,13.80
2023-04-30T00:06:09.405Z,14.30
2023-04-30T00:08:40.891Z,14.30
2023-04-30T00:11:13.653Z,14.20
2023-04-30T00:13:44.244Z,14.30
2023-04-30T00:16:17.208Z,13.60
2023-04-30T00:18:52.456Z,13.50
2023-04-30T00:21:26.125Z,13.50
2023-04-30T00:24:02.483Z,13.10
2023-04-30T00:26:34.802Z,12.30
2023-04-30T00:29:08.090Z,13.20
2023-04-30T00:31:40.521Z,13.50
2023-04-30T00:34:12.135Z,13.30
2023-04-30T00:36:44.762Z,12.40
2023-04-30T00:39:18.116Z,13.40
2023-04-30T00:41:51.373Z,12.50
2023-04-30T00:44:24.995Z,12.20
2023-04-30T00:46:57.534Z,13.00
2023-04-30T00:49:31.660Z,12.60
2023-04-30T00:52:03.701Z,12.50
2023-04-30T00:54:36.747Z,12.30
2023-04-30T00:57:13.353Z,12.20
2023-04-30T00:59:45.598Z,12.20
2023-04-30T01:02:18.877Z,12.10
2023-04-30T01:04:53.224Z,12.70
2023-04-30T01:07:29.277Z,13.00
2023-04-30T01:10:05.334Z,12.80
2023-04-30T01:12:44.741Z,12.50
2023-04-30T01:15:29.047Z,13.00
2023-04-30T01:18:06.926Z,13.30
2023-04-30T01:20:50.140Z,12.70
2023-04-30T01:23:44.221Z,12.40
2023-04-30T01:26:21.965Z,12.00
2023-04-30T01:28:58.952Z,12.80
2023-04-30T01:31:31.283Z,12.40
2023-04-30T01:34:04.060Z,12.50
2023-04-30T01:36:52.406Z,12.50
2023-04-30T01:39:48.075Z,12.40
2023-04-30T01:42:26.284Z,12.90
2023-04-30T01:45:35.224Z,12.90
2023-04-30T01:48:20.388Z,13.30
2023-04-30T01:50:59.418Z,13.10
2023-04-30T01:53:45.803Z,12.90
2023-04-30T01:56:26.404Z,12.70
2023-04-30T01:59:02.743Z,12.60
2023-04-30T02:01:37.124Z,12.60
2023-04-30T02:04:09.054Z,13.50
2023-04-30T02:06:42.874Z,12.90
2023-04-30T02:09:14.579Z,13.30
2023-04-30T02:11:44.383Z,12.70
2023-04-30T02:14:17.380Z,13.20
2023-04-30T02:16:48.297Z,13.40
2023-04-30T02:19:20.860Z,13.10
2023-04-30T02:21:54.662Z,12.80
2023-04-30T02:24:27.653Z,13.40
2023-04-30T02:26:59.783Z,13.30
2023-04-30T02:29:33.588Z,14.00
2023-04-30T02:32:06.500Z,13.60
2023-04-30T02:34:39.374Z,13.20
2023-04-30T02:37:14.040Z,13.40
2023-04-30T02:39:47.609Z,13.40
2023-04-30T02:42:21.333Z,13.80
2023-04-30T02:44:53.022Z,13.40
2023-04-30T02:47:25.571Z,13.00
2023-04-30T02:49:58.045Z,13.30
2023-04-30T02:52:30.115Z,13.40
2023-04-30T02:55:08.983Z,13.30
2023-04-30T02:57:41.315Z,12.90
2023-04-30T03:00:17.493Z,13.70
2023-04-30T03:02:50.973Z,13.70
2023-04-30T03:05:24.620Z,13.50
2023-04-30T03:07:56.136Z,12.20
2023-04-30T03:10:27.569Z,13.60
2023-04-30T03:13:00.047Z,13.90
2023-04-30T03:15:34.010Z,13.50
2023-04-30T03:18:07.256Z,13.60
2023-04-30T03:20:37.780Z,14.70
2023-04-30T03:23:10.287Z,14.50
2023-04-30T03:25:42.376Z,13.60
2023-04-30T03:28:14.411Z,13.50
2023-04-30T03:30:48.614Z,12.90
2023-04-30T03:33:20.658Z,13.20
2023-04-30T03:35:54.071Z,13.10
2023-04-30T03:38:26.097Z,12.60
2023-04-30T03:40:58.631Z,12.40
2023-04-30T03:43:31.006Z,13.10
2023-04-30T03:46:06.572Z,12.90
2023-04-30T03:48:38.145Z,13.40
2023-04-30T03:51:10.779Z,13.10
2023-04-30T03:53:44.141Z,12.60
2023-04-30T03:56:17.704Z,12.90
2023-04-30T03:58:54.288Z,12.40
2023-04-30T04:01:25.228Z,12.40
2023-04-30T04:03:59.036Z,12.80
2023-04-30T04:06:31.888Z,12.40
2023-04-30T04:09:05.244Z,13.20
2023-04-30T04:11:37.321Z,12.60
2023-04-30T04:14:08.857Z,12.40
2023-04-30T04:16:42.534Z,12.50
2023-04-30T04:19:15.247Z,12.20
2023-04-30T04:21:48.183Z,10.80
2023-04-30T04:24:21.223Z,11.40
2023-04-30T04:26:53.626Z,11.50
2023-04-30T04:29:25.936Z,11.50
2023-04-30T04:32:00.115Z,11.10
2023-04-30T04:34:32.227Z,11.00
2023-04-30T04:37:04.539Z,11.50
2023-04-30T04:39:36.913Z,10.70
2023-04-30T04:42:09.246Z,10.10
2023-04-30T04:44:44.112Z,10.30
2023-04-30T04:47:19.249Z,10.50
2023-04-30T04:49:53.203Z,10.60
2023-04-30T04:52:25.722Z,10.30
2023-04-30T04:54:56.418Z,9.80
2023-04-30T04:57:28.151Z,9.70
2023-04-30T04:59:59.382Z,9.80
2023-04-30T05:02:33.320Z,9.50
2023-04-30T05:05:06.978Z,9.20
2023-04-30T05:07:39.467Z,9.00
2023-04-30T05:10:19.163Z,9.20
2023-04-30T05:12:51.583Z,9.30
2023-04-30T05:15:24.698Z,9.40
2023-04-30T05:17:56.903Z,9.80
2023-04-30T05:20:28.662Z,10.30
2023-04-30T05:23:01.848Z,9.50
2023-04-30T05:25:34.430Z,9.30
2023-04-30T05:28:09.438Z,9.60
2023-04-30T05:30:42.698Z,9.60
2023-04-30T05:33:18.072Z,8.60
2023-04-30T05:35:54.112Z,8.20
2023-04-30T05:38:28.775Z,7.50
2023-04-30T05:41:00.715Z,8.00
2023-04-30T05:43:34.660Z,8.20
2023-04-30T05:46:07.810Z,8.00
2023-04-30T05:48:41.521Z,7.00
2023-04-30T05:51:13.285Z,7.50
2023-04-30T05:53:45.814Z,22.80
2023-04-30T05:56:19.205Z,7.00
2023-04-30T05:58:52.517Z,6.00
2023-04-30T06:01:28.921Z,6.60
2023-04-30T06:04:05.634Z,6.30
2023-04-30T06:06:38.564Z,6.60
2023-04-30T06:09:11.004Z,5.80
2023-04-30T06:11:50.641Z,5.90
2023-04-30T06:14:23.630Z,5.90
2023-04-30T06:16:56.993Z,5.30
2023-04-30T06:19:29.308Z,5.60
2023-04-30T06:22:01.158Z,5.10
2023-04-30T06:24:32.709Z,4.80
2023-04-30T06:27:05.913Z,4.80
2023-04-30T06:29:39.309Z,4.90
2023-04-30T06:32:11.839Z,4.80
2023-04-30T06:34:45.571Z,4.80
2023-04-30T06:37:18.928Z,4.70
2023-04-30T06:39:52.609Z,4.90
2023-04-30T06:42:27.435Z,4.40
2023-04-30T06:44:58.232Z,4.40
2023-04-30T06:47:34.878Z,4.70
2023-04-30T06:50:08.981Z,9.00
2023-04-30T06:52:42.007Z,4.50
2023-04-30T06:55:15.466Z,4.20
2023-04-30T06:57:50.796Z,4.00
2023-04-30T07:00:23.330Z,4.60
2023-04-30T07:02:56.401Z,3.80
2023-04-30T07:05:28.657Z,4.50
2023-04-30T07:08:05.304Z,3.80
2023-04-30T07:10:36.799Z,3.70
2023-04-30T07:13:09.952Z,3.60
2023-04-30T07:15:42.747Z,3.10
2023-04-30T07:18:14.491Z,3.10
2023-04-30T07:20:48.269Z,3.30
2023-04-30T07:23:22.229Z,3.40
2023-04-30T07:25:54.861Z,3.20
2023-04-30T07:28:29.298Z,2.90
2023-04-30T07:31:03.799Z,2.90
2023-04-30T07:33:41.215Z,2.90
2023-04-30T07:36:16.123Z,2.90
2023-04-30T07:38:48.944Z,3.30
2023-04-30T07:41:25.953Z,2.80
2023-04-30T07:43:58.779Z,2.60
2023-04-30T07:46:31.845Z,2.30
2023-04-30T07:49:04.318Z,2.50
2023-04-30T07:51:38.244Z,2.80
2023-04-30T07:54:12.064Z,2.70
2023-04-30T07:56:44.533Z,2.50
2023-04-30T07:59:17.492Z,2.10
2023-04-30T08:01:50.368Z,2.60
2023-04-30T08:04:22.153Z,2.10
2023-04-30T08:06:56.689Z,1.90
2023-04-30T08:09:31.480Z,2.10
2023-04-30T08:12:04.818Z,2.00
2023-04-30T08:15:00.489Z,2.00
2023-04-30T08:17:33.581Z,2.60
2023-04-30T08:20:10.671Z,2.00
2023-04-30T08:22:42.794Z,2.10
2023-04-30T08:25:17.909Z,2.10
2023-04-30T08:27:52.557Z,2.00
2023-04-30T08:30:22.884Z,1.90
2023-04-30T08:32:57.546Z,2.10
2023-04-30T08:35:31.270Z,2.00
2023-04-30T08:38:04.187Z,2.00
2023-04-30T08:40:51.122Z,2.10
2023-04-30T08:43:28.126Z,2.10
2023-04-30T08:46:00.582Z,2.10
2023-04-30T08:48:32.628Z,1.90
2023-04-30T08:51:06.454Z,1.50
2023-04-30T08:53:42.545Z,1.90
2023-04-30T08:56:15.221Z,1.80
2023-04-30T08:58:52.715Z,1.60
2023-04-30T09:01:26.225Z,1.70
2023-04-30T09:03:59.610Z,1.80
2023-04-30T09:06:33.696Z,1.70
2023-04-30T09:09:13.483Z,2.10
2023-04-30T09:11:45.024Z,1.90
2023-04-30T09:14:28.023Z,1.70
2023-04-30T09:17:00.251Z,1.60
2023-04-30T09:19:33.226Z,1.60
2023-04-30T09:22:24.828Z,14.00
2023-04-30T09:24:57.595Z,3.60
2023-04-30T09:27:32.547Z,3.20
2023-04-30T09:30:05.781Z,2.20
2023-04-30T09:32:58.533Z,1.80
2023-04-30T09:35:34.305Z,11.30
2023-04-30T09:38:05.899Z,15.50
2023-04-30T09:40:42.544Z,14.50
2023-04-30T09:43:14.590Z,5.80
2023-04-30T09:45:50.280Z,6.80
2023-04-30T09:48:25.455Z,2.00
2023-04-30T09:50:58.142Z,2.00
2023-04-30T09:53:32.447Z,2.80
2023-04-30T09:56:08.147Z,7.80
2023-04-30T09:58:46.239Z,2.30
2023-04-30T10:01:20.774Z,1.70
2023-04-30T10:03:53.723Z,2.10
2023-04-30T10:06:30.005Z,1.60
2023-04-30T10:09:04.070Z,1.90
2023-04-30T10:11:39.247Z,3.10
2023-04-30T10:14:14.489Z,2.10
2023-04-30T10:16:52.727Z,1.80
2023-04-30T10:19:27.550Z,5.70
2023-04-30T10:21:59.490Z,13.50
2023-04-30T10:24:33.183Z,20.70
2023-04-30T10:27:05.982Z,4.90
2023-04-30T10:29:36.940Z,38.20
2023-04-30T10:32:09.973Z,15.50
2023-04-30T10:34:51.070Z,8.00
2023-04-30T10:37:30.893Z,8.70
2023-04-30T10:40:05.391Z,2.70
2023-04-30T10:42:39.676Z,2.20
2023-04-30T10:45:18.814Z,1.50
2023-04-30T10:47:52.076Z,1.80
2023-04-30T10:50:30.679Z,1.80
2023-04-30T10:53:07.309Z,1.90
2023-04-30T10:55:51.821Z,1.70
2023-04-30T10:58:31.098Z,1.90
2023-04-30T11:01:08.853Z,1.60
2023-04-30T11:03:44.500Z,1.70
2023-04-30T11:06:19.469Z,1.60
2023-04-30T11:08:52.381Z,1.70
2023-04-30T11:11:23.796Z,1.90
2023-04-30T11:14:02.375Z,1.50
2023-04-30T11:16:35.987Z,1.70
2023-04-30T11:19:13.872Z,1.70
2023-04-30T11:22:19.264Z,2.00
2023-04-30T11:25:20.675Z,1.90
2023-04-30T11:27:53.410Z,1.90
2023-04-30T11:30:26.505Z,1.50
2023-04-30T11:33:03.804Z,1.70
2023-04-30T11:35:36.527Z,1.90
2023-04-30T11:38:09.139Z,1.70
2023-04-30T11:40:45.763Z,1.80
2023-04-30T11:43:25.644Z,1.60
2023-04-30T11:46:23.953Z,1.80
2023-04-30T11:48:59.088Z,1.80
2023-04-30T11:51:31.330Z,1.90
2023-04-30T11:54:09.512Z,9.30
2023-04-30T11:56:41.711Z,2.80
2023-04-30T11:59:17.782Z,2.10
2023-04-30T12:01:51.483Z,2.40
2023-04-30T12:04:25.768Z,4.70
2023-04-30T12:06:59.237Z,3.10
2023-04-30T12:09:32.087Z,3.40
2023-04-30T12:12:05.191Z,2.50
2023-04-30T12:14:38.450Z,2.40
2023-04-30T12:17:34.230Z,2.30
2023-04-30T12:20:06.884Z,2.10
2023-04-30T12:22:40.955Z,2.10
2023-04-30T12:25:17.966Z,2.00
2023-04-30T12:27:51.477Z,1.90
2023-04-30T12:30:28.138Z,2.30
2023-04-30T12:33:03.062Z,1.80
2023-04-30T12:35:35.577Z,1.60
2023-04-30T12:38:10.140Z,5.50
2023-04-30T12:40:47.767Z,5.50
2023-04-30T12:43:22.005Z,8.10
2023-04-30T12:45:56.564Z,2.50
2023-04-30T12:48:30.113Z,2.80
2023-04-30T12:51:04.397Z,3.30
2023-04-30T12:53:35.325Z,2.10
2023-04-30T12:56:17.796Z,2.20
2023-04-30T12:58:50.780Z,2.50
2023-04-30T13:01:23.812Z,2.40
2023-04-30T13:03:58.068Z,2.10
2023-04-30T13:06:30.736Z,2.20
2023-04-30T13:09:03.978Z,1.70
2023-04-30T13:11:36.282Z,1.80
2023-04-30T13:14:06.994Z,1.80
2023-04-30T13:16:40.313Z,1.90
2023-04-30T13:19:12.361Z,1.80
2023-04-30T13:21:46.429Z,2.00
2023-04-30T13:24:18.314Z,1.90
2023-04-30T13:26:50.197Z,2.00
2023-04-30T13:29:22.911Z,2.00
2023-04-30T13:31:55.567Z,1.80
2023-04-30T13:34:26.651Z,6.00
2023-04-30T13:37:00.119Z,2.10
2023-04-30T13:39:36.370Z,2.10
2023-04-30T13:42:08.452Z,2.10
2023-04-30T13:44:41.248Z,1.90
2023-04-30T13:47:14.563Z,2.10
2023-04-30T13:49:47.927Z,2.00
2023-04-30T13:52:20.044Z,1.90
2023-04-30T13:54:52.738Z,5.00
2023-04-30T13:57:25.728Z,2.30
2023-04-30T13:59:58.273Z,2.10
2023-04-30T14:02:31.564Z,5.50
2023-04-30T14:05:06.225Z,4.50
2023-04-30T14:07:39.875Z,2.00
2023-04-30T14:10:14.245Z,2.20
2023-04-30T14:12:45.569Z,8.00
2023-04-30T14:15:18.717Z,1.90
2023-04-30T14:17:49.829Z,2.50
2023-04-30T14:20:23.884Z,2.10
2023-04-30T14:22:56.649Z,2.80
2023-04-30T14:25:28.533Z,2.50
2023-04-30T14:28:02.060Z,3.30
2023-04-30T14:30:35.212Z,2.20
2023-04-30T14:33:06.554Z,2.40
2023-04-30T14:35:38.262Z,4.00
2023-04-30T14:38:09.440Z,3.10
2023-04-30T14:40:42.112Z,9.70
2023-04-30T14:43:17.611Z,15.80
2023-04-30T14:45:48.979Z,24.40
2023-04-30T14:48:20.057Z,19.70
2023-04-30T14:50:52.290Z,8.30
2023-04-30T14:53:24.419Z,8.10
2023-04-30T14:55:57.502Z,5.90
2023-04-30T14:58:28.434Z,2.00
2023-04-30T15:01:01.566Z,7.80
2023-04-30T15:03:33.629Z,2.60
2023-04-30T15:06:06.967Z,3.90
2023-04-30T15:08:40.904Z,11.90
2023-04-30T15:11:13.278Z,3.00
2023-04-30T15:13:46.143Z,3.80
2023-04-30T15:16:18.770Z,8.70
2023-04-30T15:18:52.017Z,2.50
2023-04-30T15:21:25.086Z,2.80
2023-04-30T15:24:00.331Z,2.20
2023-04-30T15:26:32.690Z,3.30
2023-04-30T15:29:05.102Z,13.80
2023-04-30T15:31:35.777Z,25.30
2023-04-30T15:34:08.247Z,5.70
2023-04-30T15:36:42.744Z,14.70
2023-04-30T15:39:16.181Z,2.40
2023-04-30T15:41:48.887Z,3.80
2023-04-30T15:44:20.648Z,10.60
2023-04-30T15:46:52.015Z,2.70
2023-04-30T15:49:27.295Z,2.20
2023-04-30T15:51:59.133Z,4.80
2023-04-30T15:54:30.404Z,7.90
2023-04-30T15:57:06.262Z,3.60
2023-04-30T15:59:38.860Z,3.40
2023-04-30T16:02:09.483Z,3.10
2023-04-30T16:04:40.829Z,2.50
2023-04-30T16:07:15.143Z,2.50
2023-04-30T16:09:48.664Z,46.20
2023-04-30T16:12:19.254Z,2.40
2023-04-30T16:14:51.521Z,1.70
2023-04-30T16:17:25.043Z,2.90
2023-04-30T16:19:56.382Z,3.50
2023-04-30T16:22:30.479Z,3.40
2023-04-30T16:25:07.173Z,2.50
2023-04-30T16:27:39.663Z,2.50
2023-04-30T16:30:15.035Z,2.30
2023-04-30T16:32:46.470Z,2.30
2023-04-30T16:35:18.468Z,2.00
2023-04-30T16:37:51.125Z,3.00
2023-04-30T16:40:24.566Z,2.20
2023-04-30T16:42:59.154Z,2.30
2023-04-30T16:45:32.760Z,2.30
2023-04-30T16:48:04.186Z,2.00
2023-04-30T16:50:39.294Z,2.40
2023-04-30T16:53:11.934Z,2.10
2023-04-30T16:55:44.819Z,1.90
2023-04-30T16:58:17.676Z,3.00
2023-04-30T17:00:55.505Z,2.30
2023-04-30T17:03:30.166Z,2.20
2023-04-30T17:06:02.464Z,2.40
2023-04-30T17:08:34.698Z,2.10
2023-04-30T17:11:06.664Z,2.20
2023-04-30T17:13:39.692Z,2.10
2023-04-30T17:16:11.614Z,2.40
2023-04-30T17:18:44.292Z,2.30
2023-04-30T17:21:15.587Z,2.60
2023-04-30T17:23:49.660Z,2.70
2023-04-30T17:26:23.094Z,2.90
2023-04-30T17:28:59.321Z,2.20
2023-04-30T17:31:31.569Z,2.30
2023-04-30T17:34:05.049Z,2.30
2023-04-30T17:36:36.129Z,3.00
2023-04-30T17:39:09.498Z,2.40
2023-04-30T17:41:41.996Z,2.60
2023-04-30T17:44:14.259Z,2.70
2023-04-30T17:46:45.927Z,2.50
2023-04-30T17:49:17.709Z,2.10
2023-04-30T17:51:48.661Z,2.30
2023-04-30T17:54:22.083Z,2.10
2023-04-30T17:56:52.721Z,2.50
2023-04-30T17:59:25.739Z,2.50
2023-04-30T18:02:00.020Z,3.00
2023-04-30T18:04:33.446Z,2.80
2023-04-30T18:07:05.420Z,2.70
2023-04-30T18:09:37.998Z,2.90
2023-04-30T18:12:08.678Z,3.10
2023-04-30T18:14:41.291Z,3.00
2023-04-30T18:17:16.035Z,5.10
2023-04-30T18:19:50.442Z,4.40
2023-04-30T18:22:21.827Z,4.60
2023-04-30T18:24:56.585Z,4.60
2023-04-30T18:27:34.246Z,3.50
2023-04-30T18:30:08.239Z,3.90
2023-04-30T18:32:42.243Z,4.10
2023-04-30T18:35:13.610Z,5.80
2023-04-30T18:37:47.689Z,4.40
2023-04-30T18:40:20.398Z,3.50
2023-04-30T18:42:54.036Z,4.10
2023-04-30T18:45:28.704Z,4.20
2023-04-30T18:48:00.714Z,5.60
2023-04-30T18:50:33.219Z,4.50
2023-04-30T18:53:24.533Z,3.90
2023-04-30T18:55:58.800Z,4.90
2023-04-30T18:58:30.363Z,4.60
2023-04-30T19:01:04.621Z,5.50
2023-04-30T19:03:36.496Z,5.10
2023-04-30T19:06:08.912Z,4.20
2023-04-30T19:08:41.167Z,3.80
2023-04-30T19:11:12.871Z,3.40
2023-04-30T19:13:46.491Z,3.60
2023-04-30T19:16:18.336Z,4.60
2023-04-30T19:18:52.285Z,3.50
2023-04-30T19:21:25.481Z,3.70
2023-04-30T19:23:59.048Z,3.80
2023-04-30T19:26:37.361Z,3.80
2023-04-30T19:29:09.164Z,7.20
2023-04-30T19:31:42.375Z,3.90
2023-04-30T19:34:13.889Z,3.60
2023-04-30T19:36:46.515Z,3.40
2023-04-30T19:39:21.450Z,3.10
2023-04-30T19:41:53.418Z,6.80
2023-04-30T19:44:25.941Z,4.50
2023-04-30T19:46:59.171Z,4.30
2023-04-30T19:49:33.172Z,3.70
2023-04-30T19:52:09.613Z,3.80
2023-04-30T19:54:42.940Z,4.60
2023-04-30T19:57:23.075Z,5.40
2023-04-30T19:59:57.327Z,4.60
2023-04-30T20:02:34.293Z,4.80
2023-04-30T20:05:14.256Z,4.20
2023-04-30T20:07:48.312Z,4.50
2023-04-30T20:10:19.898Z,4.50
2023-04-30T20:12:55.880Z,4.60
2023-04-30T20:15:29.402Z,5.30
2023-04-30T20:18:01.835Z,5.40
2023-04-30T20:20:35.349Z,5.60
2023-04-30T20:23:37.440Z,5.60
2023-04-30T20:26:10.767Z,5.50
2023-04-30T20:28:44.238Z,7.00
2023-04-30T20:31:16.551Z,5.60
2023-04-30T20:33:51.933Z,5.50
2023-04-30T20:36:22.031Z,5.70
2023-04-30T20:38:55.930Z,5.10
2023-04-30T20:41:29.914Z,5.30
2023-04-30T20:44:03.080Z,5.50
2023-04-30T20:46:33.980Z,5.30
2023-04-30T20:49:05.864Z,5.20
2023-04-30T20:51:40.433Z,5.70
2023-04-30T20:54:12.364Z,9.00
2023-04-30T20:56:47.446Z,5.80
2023-04-30T20:59:18.308Z,5.30
2023-04-30T21:01:52.186Z,5.70
2023-04-30T21:04:26.054Z,5.40
2023-04-30T21:06:58.947Z,5.10
2023-04-30T21:09:35.207Z,5.30
2023-04-30T21:12:06.919Z,5.30
2023-04-30T21:14:39.821Z,5.60
2023-04-30T21:17:18.688Z,5.60
2023-04-30T21:19:52.374Z,6.90
2023-04-30T21:22:24.655Z,7.90
2023-04-30T21:24:58.631Z,7.80
2023-04-30T21:27:30.662Z,8.10
2023-04-30T21:30:01.686Z,7.90
2023-04-30T21:32:33.781Z,7.50
2023-04-30T21:35:07.201Z,7.70
2023-04-30T21:37:41.048Z,7.30
2023-04-30T21:40:16.512Z,7.20
2023-04-30T21:42:50.196Z,6.80
2023-04-30T21:45:24.030Z,6.80
2023-04-30T21:47:56.491Z,7.80
2023-04-30T21:50:28.243Z,7.90
2023-04-30T21:53:02.159Z,7.70
2023-04-30T21:55:33.711Z,7.50
2023-04-30T21:58:06.749Z,8.30
2023-04-30T22:00:45.072Z,8.70
2023-04-30T22:03:17.139Z,9.00
2023-04-30T22:05:48.294Z,9.10
2023-04-30T22:08:25.090Z,9.30
2023-04-30T22:11:01.589Z,9.20
2023-04-30T22:13:36.376Z,9.00
2023-04-30T22:16:11.466Z,8.90
2023-04-30T22:18:53.215Z,9.50
2023-04-30T22:21:26.822Z,9.20
2023-04-30T22:24:00.224Z,9.00
2023-04-30T22:26:32.423Z,8.30
2023-04-30T22:29:04.343Z,7.90
2023-04-30T22:31:36.451Z,8.10
2023-04-30T22:34:12.120Z,7.90
2023-04-30T22:36:47.194Z,7.80
2023-04-30T22:39:21.519Z,6.90
2023-04-30T22:41:54.328Z,8.30
2023-04-30T22:44:26.438Z,7.70
2023-04-30T22:47:00.606Z,7.80
2023-04-30T22:49:37.194Z,7.70
2023-04-30T22:52:08.815Z,7.10
2023-04-30T22:54:42.144Z,7.70
2023-04-30T22:57:14.611Z,7.30
2023-04-30T22:59:48.256Z,8.40
2023-04-30T23:02:21.736Z,7.70
2023-04-30T23:04:53.742Z,8.00
2023-04-30T23:07:28.142Z,8.10
2023-04-30T23:10:00.950Z,8.70
2023-04-30T23:12:35.999Z,8.40
2023-04-30T23:15:11.687Z,8.70
2023-04-30T23:17:46.768Z,8.90
2023-04-30T23:20:18.909Z,8.80
2023-04-30T23:22:52.282Z,8.20
2023-04-30T23:25:26.382Z,9.20
2023-04-30T23:28:01.112Z,9.00
2023-04-30T23:30:32.051Z,8.50
2023-04-30T23:33:04.367Z,8.50
2023-04-30T23:35:36.041Z,8.30
2023-04-30T23:38:08.234Z,9.10
2023-04-30T23:40:44.920Z,8.90
2023-04-30T23:43:18.057Z,9.50
2023-04-30T23:45:52.061Z,9.90
2023-04-30T23:48:27.254Z,10.30
2023-04-30T23:51:06.128Z,9.00
2023-04-30T23:53:39.630Z,10.30
2023-04-30T23:56:10.546Z,10.10
2023-04-30T23:58:44.961Z,11.30
